sensor_id;sensor_type;location;lat;lon;timestamp;P1;durP1;ratioP1;P2;durP2;ratioP2
74845;SDS011;63393;48.758;9.254;2022-12-05T16:15:23;31.10;;;12.98;;
74845;SDS011;63393;48.758;9.254;2022-12-05T16:17:52;28.50;;;11.77;;
74845;SDS011;63393;48.758;9.254;2022-12-05T16:20:22;26.65;;;12.02;;
74845;SDS011;63393;48.758;9.254;2022-12-05T16:22:51;29.98;;;14.10;;
74845;SDS011;63393;48.758;9.254;2022-12-05T16:25:21;30.60;;;13.18;;
74845;SDS011;63393;48.758;9.254;2022-12-05T16:27:56;33.78;;;14.88;;
74845;SDS011;63393;48.758;9.254;2022-12-05T16:30:25;37.97;;;15.52;;
74845;SDS011;63393;48.758;9.254;2022-12-05T16:33:00;29.38;;;13.68;;
74845;SDS011;63393;48.758;9.254;2022-12-05T16:35:30;31.00;;;14.00;;
74845;SDS011;63393;48.758;9.254;2022-12-05T16:38:05;32.20;;;15.00;;
74845;SDS011;63393;48.758;9.254;2022-12-05T16:40:33;37.17;;;15.05;;
74845;SDS011;63393;48.758;9.254;2022-12-05T16:43:01;36.22;;;17.50;;
74845;SDS011;63393;48.758;9.254;2022-12-05T16:45:40;36.65;;;18.42;;
74845;SDS011;63393;48.758;9.254;2022-12-05T16:48:18;37.60;;;15.43;;
74845;SDS011;63393;48.758;9.254;2022-12-05T16:50:47;30.33;;;15.20;;
74845;SDS011;63393;48.758;9.254;2022-12-05T16:53:17;31.15;;;15.35;;
74845;SDS011;63393;48.758;9.254;2022-12-05T16:55:46;40.00;;;19.27;;
74845;SDS011;63393;48.758;9.254;2022-12-05T16:58:18;32.90;;;15.75;;
74845;SDS011;63393;48.758;9.254;2022-12-05T17:00:47;31.13;;;15.05;;
74845;SDS011;63393;48.758;9.254;2022-12-05T17:03:15;31.85;;;16.20;;
74845;SDS011;63393;48.758;9.254;2022-12-05T17:05:43;26.55;;;12.50;;
74845;SDS011;63393;48.758;9.254;2022-12-05T17:08:10;41.28;;;17.40;;
74845;SDS011;63393;48.758;9.254;2022-12-05T17:10:38;37.38;;;16.88;;
74845;SDS011;63393;48.758;9.254;2022-12-05T17:13:05;39.92;;;17.17;;
74845;SDS011;63393;48.758;9.254;2022-12-05T17:15:33;42.50;;;18.75;;
74845;SDS011;63393;48.758;9.254;2022-12-05T17:18:02;39.92;;;18.60;;
74845;SDS011;63393;48.758;9.254;2022-12-05T17:20:31;34.90;;;17.00;;
74845;SDS011;63393;48.758;9.254;2022-12-05T17:22:59;38.90;;;15.00;;
74845;SDS011;63393;48.758;9.254;2022-12-05T17:25:33;33.33;;;16.20;;
74845;SDS011;63393;48.758;9.254;2022-12-05T17:28:20;31.83;;;15.20;;
74845;SDS011;63393;48.758;9.254;2022-12-05T17:30:48;31.75;;;14.73;;
74845;SDS011;63393;48.758;9.254;2022-12-05T17:33:17;35.95;;;15.25;;
74845;SDS011;63393;48.758;9.254;2022-12-05T17:35:45;33.50;;;14.85;;
74845;SDS011;63393;48.758;9.254;2022-12-05T17:38:12;30.20;;;13.23;;
74845;SDS011;63393;48.758;9.254;2022-12-05T17:40:40;30.63;;;12.90;;
74845;SDS011;63393;48.758;9.254;2022-12-05T17:43:10;27.25;;;12.85;;
74845;SDS011;63393;48.758;9.254;2022-12-05T17:45:39;29.83;;;12.85;;
74845;SDS011;63393;48.758;9.254;2022-12-05T17:48:08;32.15;;;13.32;;
74845;SDS011;63393;48.758;9.254;2022-12-05T17:50:39;40.40;;;18.60;;
74845;SDS011;63393;48.758;9.254;2022-12-05T17:53:07;44.03;;;18.70;;
74845;SDS011;63393;48.758;9.254;2022-12-05T17:55:38;43.95;;;19.88;;
74845;SDS011;63393;48.758;9.254;2022-12-05T17:58:06;37.47;;;17.42;;
74845;SDS011;63393;48.758;9.254;2022-12-05T18:00:34;36.47;;;16.85;;
74845;SDS011;63393;48.758;9.254;2022-12-05T18:03:02;40.92;;;17.08;;
74845;SDS011;63393;48.758;9.254;2022-12-05T18:05:30;39.38;;;17.60;;
74845;SDS011;63393;48.758;9.254;2022-12-05T18:07:58;30.85;;;15.13;;
74845;SDS011;63393;48.758;9.254;2022-12-05T18:10:26;35.53;;;16.67;;
74845;SDS011;63393;48.758;9.254;2022-12-05T18:12:54;57.90;;;23.58;;
74845;SDS011;63393;48.758;9.254;2022-12-05T18:15:21;54.72;;;22.70;;
74845;SDS011;63393;48.758;9.254;2022-12-05T18:17:49;57.72;;;25.55;;
74845;SDS011;63393;48.758;9.254;2022-12-05T18:20:16;42.42;;;18.77;;
74845;SDS011;63393;48.758;9.254;2022-12-05T18:22:44;41.90;;;23.23;;
74845;SDS011;63393;48.758;9.254;2022-12-05T18:25:14;49.03;;;25.95;;
74845;SDS011;63393;48.758;9.254;2022-12-05T18:27:43;47.72;;;23.55;;
74845;SDS011;63393;48.758;9.254;2022-12-05T18:30:10;47.00;;;22.77;;
74845;SDS011;63393;48.758;9.254;2022-12-05T18:32:38;39.28;;;20.17;;
74845;SDS011;63393;48.758;9.254;2022-12-05T18:35:07;35.83;;;18.55;;
74845;SDS011;63393;48.758;9.254;2022-12-05T18:37:35;36.75;;;18.38;;
74845;SDS011;63393;48.758;9.254;2022-12-05T18:40:03;38.92;;;18.63;;
74845;SDS011;63393;48.758;9.254;2022-12-05T18:42:31;37.47;;;17.38;;
74845;SDS011;63393;48.758;9.254;2022-12-05T18:44:59;36.00;;;16.08;;
74845;SDS011;63393;48.758;9.254;2022-12-05T18:47:27;41.22;;;20.42;;
74845;SDS011;63393;48.758;9.254;2022-12-05T18:49:54;32.90;;;14.80;;
74845;SDS011;63393;48.758;9.254;2022-12-05T18:52:22;34.42;;;16.60;;
74845;SDS011;63393;48.758;9.254;2022-12-05T18:54:50;30.73;;;14.50;;
74845;SDS011;63393;48.758;9.254;2022-12-05T18:57:17;39.88;;;19.95;;
74845;SDS011;63393;48.758;9.254;2022-12-05T18:59:46;40.25;;;19.55;;
74845;SDS011;63393;48.758;9.254;2022-12-05T19:02:16;32.03;;;14.57;;
74845;SDS011;63393;48.758;9.254;2022-12-05T19:04:43;33.15;;;15.40;;
74845;SDS011;63393;48.758;9.254;2022-12-05T19:07:11;30.00;;;14.02;;
74845;SDS011;63393;48.758;9.254;2022-12-05T19:09:39;33.42;;;15.48;;
74845;SDS011;63393;48.758;9.254;2022-12-05T19:12:06;39.75;;;16.38;;
74845;SDS011;63393;48.758;9.254;2022-12-05T19:14:34;35.97;;;18.13;;
74845;SDS011;63393;48.758;9.254;2022-12-05T19:17:05;39.17;;;18.45;;
74845;SDS011;63393;48.758;9.254;2022-12-05T19:19:33;37.42;;;16.48;;
74845;SDS011;63393;48.758;9.254;2022-12-05T19:22:02;33.97;;;15.23;;
74845;SDS011;63393;48.758;9.254;2022-12-05T19:24:39;37.58;;;16.23;;
74845;SDS011;63393;48.758;9.254;2022-12-05T19:27:06;48.05;;;20.88;;
74845;SDS011;63393;48.758;9.254;2022-12-05T19:32:15;41.40;;;17.48;;
74845;SDS011;63393;48.758;9.254;2022-12-05T19:34:46;45.65;;;18.80;;
74845;SDS011;63393;48.758;9.254;2022-12-05T19:37:15;35.38;;;17.20;;
74845;SDS011;63393;48.758;9.254;2022-12-05T19:39:43;37.65;;;14.57;;
74845;SDS011;63393;48.758;9.254;2022-12-05T19:42:10;40.88;;;16.65;;
74845;SDS011;63393;48.758;9.254;2022-12-05T19:44:38;38.78;;;17.85;;
74845;SDS011;63393;48.758;9.254;2022-12-05T19:47:05;48.40;;;18.20;;
74845;SDS011;63393;48.758;9.254;2022-12-05T19:49:35;39.65;;;18.08;;
74845;SDS011;63393;48.758;9.254;2022-12-05T19:52:02;37.38;;;17.23;;
74845;SDS011;63393;48.758;9.254;2022-12-05T19:54:30;34.70;;;16.23;;
74845;SDS011;63393;48.758;9.254;2022-12-05T19:56:57;40.22;;;17.63;;
74845;SDS011;63393;48.758;9.254;2022-12-05T19:59:25;37.20;;;17.13;;
74845;SDS011;63393;48.758;9.254;2022-12-05T20:01:53;42.55;;;16.58;;
74845;SDS011;63393;48.758;9.254;2022-12-05T20:04:20;36.85;;;15.35;;
74845;SDS011;63393;48.758;9.254;2022-12-05T20:07:02;34.05;;;14.77;;
74845;SDS011;63393;48.758;9.254;2022-12-05T20:09:53;29.55;;;14.10;;
74845;SDS011;63393;48.758;9.254;2022-12-05T20:12:21;31.70;;;13.60;;
74845;SDS011;63393;48.758;9.254;2022-12-05T20:14:48;32.72;;;14.90;;
74845;SDS011;63393;48.758;9.254;2022-12-05T20:17:16;30.98;;;13.60;;
74845;SDS011;63393;48.758;9.254;2022-12-05T20:19:43;26.08;;;12.95;;
74845;SDS011;63393;48.758;9.254;2022-12-05T20:22:12;40.72;;;16.10;;
74845;SDS011;63393;48.758;9.254;2022-12-05T20:24:41;39.53;;;18.67;;
74845;SDS011;63393;48.758;9.254;2022-12-05T20:27:08;34.35;;;14.45;;
74845;SDS011;63393;48.758;9.254;2022-12-05T20:29:36;31.70;;;14.85;;
74845;SDS011;63393;48.758;9.254;2022-12-05T20:32:05;35.53;;;14.60;;
74845;SDS011;63393;48.758;9.254;2022-12-05T20:34:39;31.90;;;15.00;;
74845;SDS011;63393;48.758;9.254;2022-12-05T20:37:10;32.50;;;14.65;;
74845;SDS011;63393;48.758;9.254;2022-12-05T20:39:39;36.47;;;14.95;;
74845;SDS011;63393;48.758;9.254;2022-12-05T20:42:07;43.00;;;18.05;;
74845;SDS011;63393;48.758;9.254;2022-12-05T20:44:38;31.92;;;16.05;;
74845;SDS011;63393;48.758;9.254;2022-12-05T20:47:05;35.65;;;16.10;;
74845;SDS011;63393;48.758;9.254;2022-12-05T20:49:33;34.58;;;16.38;;
74845;SDS011;63393;48.758;9.254;2022-12-05T20:52:01;33.85;;;15.43;;
74845;SDS011;63393;48.758;9.254;2022-12-05T20:54:29;33.65;;;14.88;;
74845;SDS011;63393;48.758;9.254;2022-12-05T20:56:57;35.25;;;15.95;;
74845;SDS011;63393;48.758;9.254;2022-12-05T20:59:27;42.95;;;17.60;;
74845;SDS011;63393;48.758;9.254;2022-12-05T21:01:54;35.17;;;16.83;;
74845;SDS011;63393;48.758;9.254;2022-12-05T21:04:22;36.35;;;18.02;;
74845;SDS011;63393;48.758;9.254;2022-12-05T21:06:50;37.00;;;18.42;;
74845;SDS011;63393;48.758;9.254;2022-12-05T21:09:17;32.58;;;15.23;;
74845;SDS011;63393;48.758;9.254;2022-12-05T21:11:51;35.10;;;16.10;;
74845;SDS011;63393;48.758;9.254;2022-12-05T21:14:20;34.13;;;14.90;;
74845;SDS011;63393;48.758;9.254;2022-12-05T21:16:47;29.42;;;14.20;;
74845;SDS011;63393;48.758;9.254;2022-12-05T21:19:17;38.97;;;17.42;;
74845;SDS011;63393;48.758;9.254;2022-12-05T21:21:45;37.83;;;16.05;;
74845;SDS011;63393;48.758;9.254;2022-12-05T21:24:13;32.10;;;14.63;;
74845;SDS011;63393;48.758;9.254;2022-12-05T21:26:42;31.70;;;14.85;;
74845;SDS011;63393;48.758;9.254;2022-12-05T21:29:09;35.50;;;14.32;;
